Estación Meteorológica Peña el Pijo (Robertgarden) [ 02/03/23 03:14:57 CET ]

Fecha Hora Presion(HPa) Temp (°C) Humedad % Rocio (°C) Viento ( m/s) Direccion Lluvia 1Hora(mm) Lluvia 24H(mm) LLuvia Total(mm)
2010-May-04 01:01:14 1003.900 5.2 75 1.1         112.92
2010-May-04 02:01:13 1003.700 5.0 75 0.9         112.92
2010-May-04 03:03:21 1003.000 5.6 69 0.4         112.92
2010-May-04 04:01:11 1002.200 5.3 68 -0.1         112.92
2010-May-04 05:01:11 1002.300 4.6 65 -1.4         112.92
2010-May-04 06:01:16 1002.100 3.9 62 -2.8         112.92
2010-May-04 07:01:14 1002.000 2.4 66 -3.3         112.92
2010-May-04 08:01:16 1002.200 2.8 68 -2.5         112.92
2010-May-04 09:01:13 1001.800 5.1 59 -2.3         112.92
2010-May-04 10:01:12 1001.600 6.9 53 -2.0         112.92
2010-May-04 11:01:13 1001.100 8.3 48 -2.1         112.92
2010-May-04 12:01:18 1001.200 8.4 47 -2.3 1.4 ESE     112.92
2010-May-04 13:01:12 1001.100 8.3 46 -2.7         112.92
2010-May-04 14:01:14 1001.200 8.6 42 -3.7         112.92
2010-May-04 15:01:14 1001.600 8.8 44 -2.9 3.5 WSW     112.92
2010-May-04 16:01:13 1001.700 8.8 45 -2.6 0.9 S     112.92
2010-May-04 17:01:14 1002.200 8.9 43 -3.1 1.3 SSE     112.92
2010-May-04 18:01:16 1002.200 7.6 49 -2.5         112.92
2010-May-04 19:01:23 1002.100 7.5 47 -3.1         112.92
2010-May-04 20:01:13 1002.500 7.2 47 -3.4         112.92
2010-May-04 21:01:12 1002.700 6.5 47 -4.0         112.92
2010-May-04 22:01:13 1003.100 6.0 48 -4.2         112.92
2010-May-04 23:01:12 1004.000 5.4 47 -5.1         112.92

Temperatura Máxima:    Temperatura Mínima:
Presión Máxima:1004.000 Hpa    Presión Mínima:1001.100 Hpa


Volver